createdAt,value
2022-09-11T00:00:56.376Z,1.37
2022-09-11T00:03:28.164Z,1.03
2022-09-11T00:05:55.180Z,0.87
2022-09-11T00:08:22.403Z,1.27
2022-09-11T00:10:49.311Z,1.10
2022-09-11T00:13:22.034Z,1.10
2022-09-11T00:15:51.806Z,1.47
2022-09-11T00:18:23.824Z,1.10
2022-09-11T00:20:55.148Z,1.00
2022-09-11T00:23:23.489Z,1.20
2022-09-11T00:25:50.431Z,1.13
2022-09-11T00:28:20.614Z,1.20
2022-09-11T00:30:56.511Z,1.70
2022-09-11T00:33:23.359Z,1.10
2022-09-11T00:35:57.065Z,0.80
2022-09-11T00:38:23.944Z,1.30
2022-09-11T00:40:51.925Z,0.80
2022-09-11T00:43:19.085Z,1.00
2022-09-11T00:45:50.253Z,1.03
2022-09-11T00:48:22.077Z,1.40
2022-09-11T00:50:50.360Z,1.13
2022-09-11T00:53:18.631Z,1.20
2022-09-11T00:55:51.361Z,1.33
2022-09-11T00:58:23.749Z,1.37
2022-09-11T01:00:53.983Z,1.43
2022-09-11T01:03:21.301Z,1.50
2022-09-11T01:05:48.245Z,1.40
2022-09-11T01:08:15.160Z,1.40
2022-09-11T01:11:16.702Z,1.30
2022-09-11T01:14:09.596Z,1.13
2022-09-11T01:16:56.865Z,1.20
2022-09-11T01:19:53.763Z,1.40
2022-09-11T01:22:31.417Z,1.40
2022-09-11T01:25:10.583Z,1.33
2022-09-11T01:27:43.183Z,1.70
2022-09-11T01:30:18.194Z,1.60
2022-09-11T01:33:11.319Z,1.63
2022-09-11T01:35:49.368Z,1.40
2022-09-11T01:38:56.663Z,1.60
2022-09-11T01:41:40.498Z,1.30
2022-09-11T01:44:27.916Z,1.60
2022-09-11T01:46:55.339Z,1.30
2022-09-11T01:49:43.798Z,1.70
2022-09-11T01:52:14.665Z,1.40
2022-09-11T01:55:05.328Z,1.60
2022-09-11T01:57:45.718Z,1.70
2022-09-11T02:00:13.598Z,1.70
2022-09-11T02:02:49.555Z,1.60
2022-09-11T02:05:22.069Z,1.50
2022-09-11T02:08:03.268Z,2.00
2022-09-11T02:10:54.606Z,1.40
2022-09-11T02:13:33.244Z,1.43
2022-09-11T02:16:35.435Z,1.40
2022-09-11T02:19:05.702Z,1.47
2022-09-11T02:21:33.641Z,1.50
2022-09-11T02:24:01.744Z,1.40
2022-09-11T02:26:32.402Z,1.37
2022-09-11T02:28:59.682Z,1.70
2022-09-11T02:31:27.787Z,1.67
2022-09-11T02:33:54.923Z,1.57
2022-09-11T02:36:54.845Z,1.43
2022-09-11T02:39:45.473Z,1.57
2022-09-11T02:42:38.967Z,1.30
2022-09-11T02:45:20.018Z,1.40
2022-09-11T02:48:18.773Z,1.40
2022-09-11T02:51:07.622Z,1.47
2022-09-11T02:54:15.704Z,1.47
2022-09-11T02:57:19.219Z,1.50
2022-09-11T03:00:00.289Z,1.70
2022-09-11T03:02:29.903Z,1.43
2022-09-11T03:04:57.194Z,1.30
2022-09-11T03:07:26.963Z,1.43
2022-09-11T03:09:53.635Z,1.57
2022-09-11T03:12:20.406Z,1.20
2022-09-11T03:14:47.521Z,1.33
2022-09-11T03:17:14.293Z,1.10
2022-09-11T03:19:41.000Z,1.87
2022-09-11T03:22:07.772Z,1.30
2022-09-11T03:24:34.495Z,1.37
2022-09-11T03:27:01.512Z,1.43
2022-09-11T03:29:28.177Z,1.40
2022-09-11T03:31:54.897Z,1.80
2022-09-11T03:34:22.871Z,2.13
2022-09-11T03:36:49.560Z,1.60
2022-09-11T03:39:16.314Z,1.20
2022-09-11T03:41:43.002Z,1.63
2022-09-11T03:44:09.968Z,1.83
2022-09-11T03:46:37.085Z,2.00
2022-09-11T03:49:03.816Z,1.87
2022-09-11T03:51:31.256Z,1.60
2022-09-11T03:54:01.114Z,2.00
2022-09-11T03:56:31.163Z,1.73
2022-09-11T03:59:00.139Z,1.30
2022-09-11T04:01:27.439Z,1.60
2022-09-11T04:03:54.173Z,2.00
2022-09-11T04:06:20.928Z,1.23
2022-09-11T04:08:47.631Z,1.90
2022-09-11T04:11:14.470Z,1.57
2022-09-11T04:13:42.351Z,2.20
2022-09-11T04:16:12.840Z,1.97
2022-09-11T04:18:40.989Z,1.77
2022-09-11T04:21:09.678Z,1.57
2022-09-11T04:23:36.840Z,2.07
2022-09-11T04:26:12.384Z,1.30
2022-09-11T04:28:39.837Z,1.90
2022-09-11T04:31:06.552Z,1.67
2022-09-11T04:33:34.794Z,1.53
2022-09-11T04:36:06.678Z,1.50
2022-09-11T04:38:33.944Z,1.50
2022-09-11T04:41:02.097Z,1.60
2022-09-11T04:43:32.931Z,1.50
2022-09-11T04:46:08.364Z,1.67
2022-09-11T04:48:35.197Z,1.90
2022-09-11T04:51:04.974Z,1.83
2022-09-11T04:53:32.219Z,1.60
2022-09-11T04:56:07.352Z,1.50
2022-09-11T04:58:35.049Z,2.13
2022-09-11T05:01:05.832Z,3.00
2022-09-11T05:03:32.591Z,1.97
2022-09-11T05:05:59.368Z,2.07
2022-09-11T05:08:29.053Z,1.60
2022-09-11T05:10:55.790Z,1.70
2022-09-11T05:13:22.454Z,1.93
2022-09-11T05:15:49.216Z,1.60
2022-09-11T05:18:15.890Z,1.40
2022-09-11T05:20:43.927Z,2.50
2022-09-11T05:23:13.769Z,1.70
2022-09-11T05:25:40.491Z,1.53
2022-09-11T05:28:07.264Z,1.60
2022-09-11T05:30:33.979Z,1.80
2022-09-11T05:33:00.764Z,1.57
2022-09-11T05:35:32.091Z,1.57
2022-09-11T05:37:59.115Z,1.63
2022-09-11T05:40:26.307Z,1.80
2022-09-11T05:42:53.406Z,1.30
2022-09-11T05:45:20.144Z,1.23
2022-09-11T05:47:47.242Z,1.90
2022-09-11T05:50:14.785Z,1.87
2022-09-11T05:52:41.542Z,1.63
2022-09-11T05:55:08.494Z,1.30
2022-09-11T05:57:35.227Z,1.80
2022-09-11T06:00:03.451Z,1.40
2022-09-11T06:02:31.100Z,4.53
2022-09-11T06:04:57.865Z,3.27
2022-09-11T06:07:24.622Z,2.30
2022-09-11T06:09:51.326Z,1.77
2022-09-11T06:12:18.718Z,1.20
2022-09-11T06:14:45.425Z,2.40
2022-09-11T06:17:12.268Z,2.00
2022-09-11T06:19:39.008Z,1.87
2022-09-11T06:22:05.706Z,1.83
2022-09-11T06:24:32.379Z,1.90
2022-09-11T06:26:59.959Z,2.00
2022-09-11T06:29:26.635Z,1.80
2022-09-11T06:31:53.898Z,1.50
2022-09-11T06:34:21.046Z,1.57
2022-09-11T06:36:51.886Z,1.53
2022-09-11T06:39:23.199Z,1.63
2022-09-11T06:41:50.327Z,1.93
2022-09-11T06:44:17.271Z,1.80
2022-09-11T06:46:45.207Z,2.20
2022-09-11T06:49:11.942Z,1.97
2022-09-11T06:51:40.106Z,1.93
2022-09-11T06:54:06.857Z,1.60
2022-09-11T06:56:33.635Z,2.03
2022-09-11T06:59:00.716Z,1.87
2022-09-11T07:01:28.474Z,2.10
2022-09-11T07:03:56.180Z,2.00
2022-09-11T07:06:25.571Z,2.63
2022-09-11T07:09:02.862Z,2.03
2022-09-11T07:11:34.454Z,2.00
2022-09-11T07:14:02.747Z,2.10
2022-09-11T07:16:29.508Z,5.07
2022-09-11T07:18:56.319Z,2.30
2022-09-11T07:21:25.430Z,1.93
2022-09-11T07:23:55.859Z,1.70
2022-09-11T07:26:24.743Z,1.90
2022-09-11T07:28:52.216Z,1.90
2022-09-11T07:31:22.465Z,1.93
2022-09-11T07:33:50.605Z,1.60
2022-09-11T07:36:19.934Z,1.97
2022-09-11T07:38:48.081Z,2.30
2022-09-11T07:41:18.222Z,2.73
2022-09-11T07:43:48.386Z,2.20
2022-09-11T07:46:15.445Z,2.53
2022-09-11T07:48:45.515Z,2.33
2022-09-11T07:51:14.751Z,2.27
2022-09-11T07:53:46.309Z,3.03
2022-09-11T07:56:15.464Z,3.53
2022-09-11T07:58:43.304Z,2.30
2022-09-11T08:01:12.825Z,3.07
2022-09-11T08:03:39.958Z,2.60
2022-09-11T08:06:09.346Z,2.67
2022-09-11T08:08:37.206Z,2.97
2022-09-11T08:11:06.879Z,3.10
2022-09-11T08:13:34.578Z,2.90
2022-09-11T08:16:01.872Z,3.00
2022-09-11T08:18:28.943Z,3.60
2022-09-11T08:21:08.560Z,3.10
2022-09-11T08:23:42.293Z,3.23
2022-09-11T08:26:15.791Z,2.87
2022-09-11T08:28:43.650Z,3.70
2022-09-11T08:31:11.708Z,5.13
2022-09-11T08:33:38.781Z,4.07
2022-09-11T08:36:08.415Z,4.03
2022-09-11T08:38:35.278Z,4.30
2022-09-11T08:41:23.741Z,3.77
2022-09-11T08:44:17.387Z,4.87
2022-09-11T08:46:48.329Z,4.13
2022-09-11T08:49:21.966Z,3.87
2022-09-11T08:51:50.049Z,3.90
2022-09-11T08:54:27.626Z,4.37
2022-09-11T08:57:07.094Z,4.30
2022-09-11T08:59:46.605Z,4.50
2022-09-11T09:02:28.207Z,5.03
2022-09-11T09:05:15.924Z,4.80
2022-09-11T09:08:01.576Z,4.47
2022-09-11T09:10:43.274Z,4.90
2022-09-11T09:13:32.741Z,5.30
2022-09-11T09:16:51.909Z,5.17
2022-09-11T09:19:35.298Z,4.07
2022-09-11T09:22:23.097Z,3.87
2022-09-11T09:24:53.655Z,5.30
2022-09-11T09:27:28.272Z,4.23
2022-09-11T09:29:57.672Z,4.33
2022-09-11T09:32:32.317Z,4.43
2022-09-11T09:35:03.738Z,4.50
2022-09-11T09:37:30.507Z,3.97
2022-09-11T09:39:57.377Z,4.40
2022-09-11T09:42:32.236Z,4.23
2022-09-11T09:45:32.827Z,5.00
2022-09-11T09:48:01.082Z,3.70
2022-09-11T09:50:34.346Z,4.20
2022-09-11T09:53:38.431Z,3.67
2022-09-11T09:56:06.122Z,3.80
2022-09-11T09:58:40.083Z,3.87
2022-09-11T10:01:39.606Z,3.63
2022-09-11T10:04:16.166Z,3.53
2022-09-11T10:06:45.436Z,4.53
2022-09-11T10:09:54.720Z,3.53
2022-09-11T10:12:27.919Z,3.63
2022-09-11T10:15:04.660Z,3.27
2022-09-11T10:17:32.903Z,4.07
2022-09-11T10:20:22.944Z,4.10
2022-09-11T10:22:50.978Z,4.10
2022-09-11T10:25:22.314Z,3.40
2022-09-11T10:28:11.820Z,4.13
2022-09-11T10:30:41.471Z,4.13
2022-09-11T10:33:39.699Z,4.80
2022-09-11T10:36:09.941Z,5.23
2022-09-11T10:38:48.001Z,6.03
2022-09-11T10:41:14.991Z,5.70
2022-09-11T10:43:47.617Z,5.47
2022-09-11T10:46:28.042Z,4.30
2022-09-11T10:52:08.477Z,4.73
2022-09-11T10:54:44.669Z,5.67
2022-09-11T10:57:49.863Z,5.40
2022-09-11T11:00:21.014Z,5.90
2022-09-11T11:03:17.246Z,4.90
2022-09-11T11:06:20.067Z,4.77
2022-09-11T11:09:16.178Z,5.30
2022-09-11T11:12:05.513Z,4.70
2022-09-11T11:14:50.213Z,4.07
2022-09-11T11:17:31.741Z,4.60
2022-09-11T11:20:10.104Z,4.40
2022-09-11T11:23:01.578Z,4.70
2022-09-11T11:25:51.001Z,4.03
2022-09-11T11:28:28.243Z,3.70
2022-09-11T11:30:55.204Z,2.93
2022-09-11T11:33:40.478Z,3.17
2022-09-11T11:36:33.067Z,2.50
2022-09-11T11:39:17.474Z,3.17
2022-09-11T11:41:59.904Z,3.10
2022-09-11T11:44:41.922Z,2.97
2022-09-11T11:47:11.048Z,2.67
2022-09-11T11:50:05.887Z,3.17
2022-09-11T11:52:36.183Z,2.30
2022-09-11T11:55:26.289Z,2.37
2022-09-11T11:58:14.393Z,2.47
2022-09-11T12:00:46.998Z,2.70
2022-09-11T12:03:46.757Z,2.43
2022-09-11T12:06:13.884Z,2.57
2022-09-11T12:08:45.502Z,3.70
2022-09-11T12:11:16.385Z,5.70
2022-09-11T12:13:46.672Z,2.23
2022-09-11T12:16:35.048Z,2.80
2022-09-11T12:19:05.777Z,2.80
2022-09-11T12:21:32.445Z,2.97
2022-09-11T12:24:03.217Z,3.30
2022-09-11T12:26:31.652Z,2.97
2022-09-11T12:29:11.836Z,3.23
2022-09-11T12:31:50.796Z,3.27
2022-09-11T12:34:43.337Z,2.73
2022-09-11T12:37:37.979Z,2.63
2022-09-11T12:40:19.133Z,3.10
2022-09-11T12:42:55.097Z,2.73
2022-09-11T12:45:40.479Z,2.43
2022-09-11T12:48:14.378Z,3.37
2022-09-11T12:50:58.023Z,2.47
2022-09-11T12:53:47.018Z,2.50
2022-09-11T12:56:19.907Z,2.30
2022-09-11T12:58:52.249Z,4.93
2022-09-11T13:01:44.105Z,6.97
2022-09-11T13:04:10.801Z,6.90
2022-09-11T13:06:45.029Z,3.70
2022-09-11T13:09:29.272Z,3.43
2022-09-11T13:11:58.168Z,2.60
2022-09-11T13:14:30.757Z,2.40
2022-09-11T13:17:02.222Z,2.90
2022-09-11T13:19:37.438Z,2.63
2022-09-11T13:22:24.374Z,2.67
2022-09-11T13:24:52.337Z,2.70
2022-09-11T13:27:28.226Z,2.37
2022-09-11T13:29:59.236Z,2.90
2022-09-11T13:32:26.126Z,6.97
2022-09-11T13:34:58.724Z,4.40
2022-09-11T13:37:36.628Z,1.80
2022-09-11T13:40:05.674Z,2.40
2022-09-11T13:42:34.062Z,2.93
2022-09-11T13:45:01.955Z,2.67
2022-09-11T13:47:35.243Z,2.70
2022-09-11T13:50:06.440Z,2.53
2022-09-11T13:52:34.602Z,2.50
2022-09-11T13:55:10.286Z,2.70
2022-09-11T13:57:52.213Z,2.70
2022-09-11T14:00:42.784Z,2.70
2022-09-11T14:03:22.011Z,2.77
2022-09-11T14:05:55.066Z,2.60
2022-09-11T14:08:44.778Z,2.60
2022-09-11T14:11:20.387Z,2.60
2022-09-11T14:13:49.131Z,2.80
2022-09-11T14:16:21.187Z,2.97
2022-09-11T14:19:07.366Z,3.13
2022-09-11T14:21:37.221Z,2.70
2022-09-11T14:24:16.480Z,2.90
2022-09-11T14:26:43.222Z,3.97
2022-09-11T14:29:24.501Z,3.30
2022-09-11T14:31:52.878Z,2.70
2022-09-11T14:34:26.687Z,3.27
2022-09-11T14:36:57.780Z,3.23
2022-09-11T14:39:43.989Z,4.60
2022-09-11T14:42:16.898Z,2.60
2022-09-11T14:44:44.458Z,3.03
2022-09-11T14:47:17.309Z,3.30
2022-09-11T14:49:45.318Z,3.10
2022-09-11T14:52:18.490Z,3.30
2022-09-11T14:54:46.419Z,4.10
2022-09-11T14:57:20.961Z,3.60
2022-09-11T14:59:47.938Z,3.10
2022-09-11T15:02:21.395Z,2.80
2022-09-11T15:04:48.909Z,2.70
2022-09-11T15:07:20.401Z,3.30
2022-09-11T15:09:47.174Z,2.90
2022-09-11T15:12:15.408Z,2.93
2022-09-11T15:14:56.626Z,3.50
2022-09-11T15:17:25.367Z,3.60
2022-09-11T15:19:52.751Z,3.10
2022-09-11T15:22:19.965Z,3.17
2022-09-11T15:24:47.140Z,2.90
2022-09-11T15:27:15.032Z,3.13
2022-09-11T15:29:42.887Z,3.67
2022-09-11T15:32:10.561Z,3.30
2022-09-11T15:34:40.771Z,3.40
2022-09-11T15:37:07.455Z,4.40
2022-09-11T15:39:34.403Z,3.57
2022-09-11T15:42:01.991Z,3.97
2022-09-11T15:44:29.115Z,3.77
2022-09-11T15:46:57.851Z,3.17
2022-09-11T15:49:25.178Z,3.80
2022-09-11T15:51:54.113Z,3.90
2022-09-11T15:54:23.279Z,4.43
2022-09-11T15:56:51.274Z,3.70
2022-09-11T15:59:18.276Z,3.70
2022-09-11T16:01:45.440Z,2.93
2022-09-11T16:04:14.961Z,3.63
2022-09-11T16:06:45.580Z,4.30
2022-09-11T16:09:21.387Z,3.53
2022-09-11T16:11:50.460Z,5.90
2022-09-11T16:14:23.284Z,3.90
2022-09-11T16:16:50.790Z,4.20
2022-09-11T16:19:19.388Z,3.93
2022-09-11T16:21:46.692Z,3.80
2022-09-11T16:24:15.468Z,3.83
2022-09-11T16:26:44.084Z,3.60
2022-09-11T16:29:13.095Z,4.27
2022-09-11T16:31:40.127Z,8.83
2022-09-11T16:34:07.952Z,7.97
2022-09-11T16:36:41.856Z,5.70
2022-09-11T16:39:11.638Z,4.33
2022-09-11T16:41:38.717Z,3.53
2022-09-11T16:44:11.469Z,3.27
2022-09-11T16:46:38.563Z,3.53
2022-09-11T16:49:06.299Z,3.57
2022-09-11T16:51:34.150Z,4.10
2022-09-11T16:54:01.430Z,3.37
2022-09-11T16:56:28.148Z,3.60
2022-09-11T16:58:55.389Z,3.40
2022-09-11T17:01:24.495Z,4.00
2022-09-11T17:03:55.207Z,3.73
2022-09-11T17:06:24.411Z,3.73
2022-09-11T17:08:51.950Z,4.00
2022-09-11T17:11:21.036Z,3.90
2022-09-11T17:13:48.890Z,4.33
2022-09-11T17:16:19.441Z,3.70
2022-09-11T17:18:51.154Z,4.53
2022-09-11T17:21:17.958Z,3.60
2022-09-11T17:23:44.890Z,4.13
2022-09-11T17:26:13.547Z,4.33
2022-09-11T17:28:41.898Z,4.33
2022-09-11T17:31:10.390Z,5.47
2022-09-11T17:33:40.189Z,5.03
2022-09-11T17:36:09.942Z,5.30
2022-09-11T17:38:37.574Z,5.03
2022-09-11T17:41:07.032Z,5.70
2022-09-11T17:43:36.170Z,5.43
2022-09-11T17:46:09.107Z,6.57
2022-09-11T17:48:38.325Z,13.80
2022-09-11T17:51:11.149Z,9.97
2022-09-11T17:53:42.100Z,7.80
2022-09-11T17:56:20.490Z,7.57
2022-09-11T17:58:51.731Z,7.17
2022-09-11T18:01:19.516Z,7.00
2022-09-11T18:03:57.701Z,6.97
2022-09-11T18:06:34.581Z,7.60
2022-09-11T18:09:06.094Z,8.50
2022-09-11T18:11:33.463Z,9.20
2022-09-11T18:14:00.415Z,7.70
2022-09-11T18:16:27.624Z,7.10
2022-09-11T18:18:55.988Z,7.90
2022-09-11T18:21:23.320Z,7.00
2022-09-11T18:23:50.811Z,6.50
2022-09-11T18:26:25.761Z,7.50
2022-09-11T18:28:57.497Z,6.30
2022-09-11T18:31:24.711Z,6.00
2022-09-11T18:33:54.621Z,7.40
2022-09-11T18:36:23.493Z,14.67
2022-09-11T18:38:56.161Z,10.60
2022-09-11T18:41:24.014Z,9.07
2022-09-11T18:43:55.519Z,7.70
2022-09-11T18:46:22.324Z,8.87
2022-09-11T18:48:52.727Z,8.40
2022-09-11T18:51:20.120Z,7.63
2022-09-11T18:53:53.535Z,7.80
2022-09-11T18:56:22.448Z,8.30
2022-09-11T18:58:50.579Z,7.17
2022-09-11T19:01:20.345Z,6.83
2022-09-11T19:03:47.195Z,6.67
2022-09-11T19:06:20.208Z,7.27
2022-09-11T19:08:48.063Z,7.40
2022-09-11T19:11:26.211Z,7.50
2022-09-11T19:13:54.576Z,8.00
2022-09-11T19:16:22.524Z,8.07
2022-09-11T19:18:49.700Z,7.70
2022-09-11T19:21:20.703Z,7.60
2022-09-11T19:23:49.654Z,6.93
2022-09-11T19:26:22.822Z,7.23
2022-09-11T19:28:51.044Z,10.03
2022-09-11T19:31:29.793Z,8.80
2022-09-11T19:34:03.530Z,8.60
2022-09-11T19:36:32.676Z,8.17
2022-09-11T19:39:00.608Z,9.10
2022-09-11T19:41:33.359Z,7.90
2022-09-11T19:44:02.195Z,11.73
2022-09-11T19:46:30.281Z,9.37
2022-09-11T19:49:00.657Z,9.80
2022-09-11T19:51:34.287Z,9.77
2022-09-11T19:54:05.317Z,8.20
2022-09-11T19:56:33.692Z,8.97
2022-09-11T19:59:00.564Z,8.03
2022-09-11T20:01:29.817Z,8.30
2022-09-11T20:03:57.574Z,9.60
2022-09-11T20:06:26.984Z,9.73
2022-09-11T20:09:13.477Z,10.60
2022-09-11T20:11:44.187Z,8.60
2022-09-11T20:14:10.975Z,9.77
2022-09-11T20:16:37.807Z,9.30
2022-09-11T20:19:07.428Z,8.50
2022-09-11T20:21:36.093Z,8.80
2022-09-11T20:24:05.155Z,14.10
2022-09-11T20:26:32.723Z,14.00
2022-09-11T20:29:03.387Z,9.53
2022-09-11T20:31:37.063Z,9.97
2022-09-11T20:34:07.288Z,8.87
2022-09-11T20:36:34.284Z,9.87
2022-09-11T20:39:06.415Z,8.60
2022-09-11T20:41:33.317Z,8.70
2022-09-11T20:44:04.537Z,9.03
2022-09-11T20:46:31.596Z,8.33
2022-09-11T20:49:00.392Z,9.43
2022-09-11T20:51:27.707Z,9.40
2022-09-11T20:53:55.748Z,9.00
2022-09-11T20:56:24.188Z,8.77
2022-09-11T20:58:51.484Z,9.40
2022-09-11T21:01:21.741Z,9.17
2022-09-11T21:03:52.060Z,9.00
2022-09-11T21:06:25.526Z,9.63
2022-09-11T21:09:03.585Z,8.90
2022-09-11T21:11:30.981Z,9.80
2022-09-11T21:13:58.737Z,10.60
2022-09-11T21:16:28.062Z,10.17
2022-09-11T21:18:57.554Z,10.90
2022-09-11T21:21:28.397Z,10.27
2022-09-11T21:23:56.852Z,10.77
2022-09-11T21:26:26.122Z,10.13
2022-09-11T21:28:52.810Z,10.00
2022-09-11T21:31:19.746Z,10.30
2022-09-11T21:33:46.569Z,9.50
2022-09-11T21:36:13.392Z,10.57
2022-09-11T21:38:40.141Z,9.77
2022-09-11T21:41:09.348Z,9.77
2022-09-11T21:43:36.695Z,10.87
2022-09-11T21:46:05.216Z,10.67
2022-09-11T21:48:36.404Z,11.13
2022-09-11T21:51:10.066Z,11.00
2022-09-11T21:53:37.719Z,10.07
2022-09-11T21:56:05.370Z,10.03
2022-09-11T21:58:32.513Z,9.27
2022-09-11T22:01:06.087Z,10.10
2022-09-11T22:03:33.042Z,9.03
2022-09-11T22:06:00.049Z,12.30
2022-09-11T22:08:26.814Z,8.53
2022-09-11T22:10:53.507Z,10.07
2022-09-11T22:13:20.450Z,9.00
2022-09-11T22:15:49.827Z,10.07
2022-09-11T22:18:18.078Z,9.53
2022-09-11T22:20:45.537Z,10.60
2022-09-11T22:23:23.114Z,9.83
2022-09-11T22:26:01.530Z,9.60
2022-09-11T22:28:28.587Z,9.17
2022-09-11T22:30:55.508Z,10.17
2022-09-11T22:33:22.599Z,10.17
2022-09-11T22:35:49.648Z,9.00
2022-09-11T22:38:16.556Z,9.37
2022-09-11T22:40:43.241Z,9.43
2022-09-11T22:43:10.156Z,10.37
2022-09-11T22:45:37.299Z,10.40
2022-09-11T22:48:04.863Z,8.50
2022-09-11T22:50:32.968Z,9.53
2022-09-11T22:52:59.927Z,7.97
2022-09-11T22:55:26.932Z,8.73
2022-09-11T22:57:53.718Z,9.77
2022-09-11T23:00:20.583Z,8.73
2022-09-11T23:02:47.377Z,9.70
2022-09-11T23:05:32.791Z,10.17
2022-09-11T23:07:59.568Z,9.50
2022-09-11T23:10:26.306Z,10.20
2022-09-11T23:12:53.578Z,10.00
2022-09-11T23:15:21.222Z,10.23
2022-09-11T23:17:48.034Z,8.77
2022-09-11T23:20:14.903Z,9.67
2022-09-11T23:22:41.658Z,10.00
2022-09-11T23:25:09.077Z,9.80
2022-09-11T23:27:35.766Z,9.67
2022-09-11T23:30:02.562Z,11.03
2022-09-11T23:32:29.268Z,9.33
2022-09-11T23:34:56.003Z,9.70
2022-09-11T23:37:22.739Z,10.00
2022-09-11T23:39:49.566Z,10.07
2022-09-11T23:42:16.309Z,10.53
2022-09-11T23:44:42.977Z,8.57
2022-09-11T23:47:09.688Z,8.40
2022-09-11T23:49:36.687Z,9.63
2022-09-11T23:52:04.308Z,8.60
2022-09-11T23:54:31.013Z,10.47
2022-09-11T23:56:58.030Z,10.57
2022-09-11T23:59:24.779Z,9.40
